Humidity-temperature Sensor

Selected Measurement Type: Air Temperature

 
Air Temperature [°C]     6 entries per hour
Showing data from 7/6/2020 (00:00:00 Z) to 6/29/2020 (00:01:00 Z)
Previous Next [ Day | 3-Days | 7-Days ]
First Last
Prev [ Day | 3-Days | 7-Days ] Next
First Last

Start Time:     :
End Time:     :     
Time (in GMT) :00 :50 :40 :30 :20 :10
Previous Next [ Day | 3-Days | 7-Days ]
First Last
Prev [ Day | 3-Days | 7-Days ] Next
First Last


123 => good data
MM => data is determined as missing
-- => data not received/configured
Back to Top Back to Top
7/6/2020 00:00 to 23:10 26.09 26.05 26.03 26.05 26.19 26.13
7/5/2020 23:00 to 22:10 26.00 25.97 26.03 26.22 26.16 26.20
7/5/2020 22:00 to 21:10 26.44 26.07 26.23 26.21 26.14 26.17
7/5/2020 21:00 to 20:10 26.12 26.19 26.32 26.31 26.17 25.66
7/5/2020 20:00 to 19:10 25.79 25.91 26.15 26.14 25.78 26.08
7/5/2020 19:00 to 18:10 26.19 26.41 26.17 26.41 26.36 26.09
7/5/2020 18:00 to 17:10 26.17 26.16 26.14 26.23 26.18 26.23
7/5/2020 17:00 to 16:10 26.32 26.17 26.18 26.17 26.24 26.28
7/5/2020 16:00 to 15:10 26.24 26.33 26.25 26.24 26.22 26.22
7/5/2020 15:00 to 14:10 26.27 26.17 26.22 26.19 26.35 26.28
7/5/2020 14:00 to 13:10 26.27 26.15 26.11 26.20 26.31 26.07
7/5/2020 13:00 to 12:10 26.05 26.14 26.06 26.20 26.17 26.20
7/5/2020 12:00 to 11:10 26.17 26.15 26.08 26.02 26.05 26.06
7/5/2020 11:00 to 10:10 26.15 26.06 26.05 26.22 26.02 26.08
7/5/2020 10:00 to 9:10 26.11 26.07 26.02 26.09 26.08 25.92
7/5/2020 09:00 to 8:10 25.93 26.01 25.91 26.01 25.93 25.87
7/5/2020 08:00 to 7:10 26.00 25.98 25.81 25.92 25.95 25.91
7/5/2020 07:00 to 6:10 25.97 25.91 25.99 26.07 25.91 26.06
7/5/2020 06:00 to 5:10 26.07 26.09 26.07 26.14 26.10 26.12
7/5/2020 05:00 to 4:10 26.02 26.04 25.93 25.87 25.84 25.74
7/5/2020 04:00 to 3:10 25.85 25.76 25.84 25.80 25.90 25.94
7/5/2020 03:00 to 2:10 26.12 25.90 25.93 25.95 26.14 26.10
7/5/2020 02:00 to 1:10 26.00 26.08 26.08 25.95 25.91 25.92
7/5/2020 01:00 to 0:10 25.85 25.86 25.80 25.65 25.69 25.59
7/5/2020 00:00 to 23:10 25.53 25.62 25.73 25.73 25.52 25.43
7/4/2020 23:00 to 22:10 25.45 25.30 25.40 25.51 25.68 25.64
7/4/2020 22:00 to 21:10 25.75 25.84 25.82 25.91 25.86 25.80
7/4/2020 21:00 to 20:10 25.85 25.81 25.85 26.17 26.00 25.81
7/4/2020 20:00 to 19:10 25.82 25.69 25.70 26.03 25.83 25.88
7/4/2020 19:00 to 18:10 25.77 25.74 25.66 25.81 25.96 25.98
7/4/2020 18:00 to 17:10 25.82 25.91 25.81 25.90 25.82 25.79
7/4/2020 17:00 to 16:10 25.48 25.29 25.43 25.35 25.44 25.72
7/4/2020 16:00 to 15:10 25.47 25.29 25.58 25.66 25.46 25.50
7/4/2020 15:00 to 14:10 25.26 25.31 25.39 25.54 25.49 25.46
7/4/2020 14:00 to 13:10 25.38 25.22 25.31 25.15 24.97 24.87
7/4/2020 13:00 to 12:10 24.93 24.68 24.51 24.27 24.42 24.49
7/4/2020 12:00 to 11:10 24.52 24.46 24.60 24.53 24.88 25.42
7/4/2020 11:00 to 10:10 25.65 25.54 25.47 25.37 25.35 24.98
7/4/2020 10:00 to 9:10 24.94 25.34 25.31 25.15 24.94 24.86
7/4/2020 09:00 to 8:10 24.72 24.55 24.50 24.55 24.19 24.59
7/4/2020 08:00 to 7:10 24.91 25.02 25.02 24.73 24.64 24.66
7/4/2020 07:00 to 6:10 24.53 24.74 25.14 25.09 25.17 25.11
7/4/2020 06:00 to 5:10 25.16 25.14 25.08 25.06 24.83 24.97
7/4/2020 05:00 to 4:10 25.25 25.66 25.62 25.36 25.38 25.63
7/4/2020 04:00 to 3:10 26.01 26.02 26.08 26.21 26.23 26.14
7/4/2020 03:00 to 2:10 26.16 26.21 26.14 26.11 26.13 26.14
7/4/2020 02:00 to 1:10 26.16 26.07 26.08 25.97 25.86 26.07
7/4/2020 01:00 to 0:10 26.08 25.98 26.08 26.04 25.97 26.04
7/4/2020 00:00 to 23:10 26.05 26.11 26.17 26.37 26.51 26.21
7/3/2020 23:00 to 22:10 26.22 26.55 26.11 26.14 26.01 26.09
7/3/2020 22:00 to 21:10 26.10 26.18 26.44 26.39 26.27 26.12
7/3/2020 21:00 to 20:10 26.25 26.10 26.12 26.21 26.22 26.35
7/3/2020 20:00 to 19:10 26.20 26.12 26.27 26.34 26.27 26.17
7/3/2020 19:00 to 18:10 26.21 26.12 26.16 25.98 26.10 26.14
7/3/2020 18:00 to 17:10 26.32 26.12 26.24 26.03 26.16 25.96
7/3/2020 17:00 to 16:10 26.06 26.03 26.03 26.01 26.02 26.05
7/3/2020 16:00 to 15:10 26.11 25.93 25.97 25.82 25.79 25.83
7/3/2020 15:00 to 14:10 25.76 25.75 25.68 25.59 25.67 25.54
7/3/2020 14:00 to 13:10 25.53 25.54 25.47 25.51 25.55 25.66
7/3/2020 13:00 to 12:10 25.47 25.50 25.55 25.62 25.43 25.70
7/3/2020 12:00 to 11:10 25.57 25.79 25.85 25.90 25.68 25.48
7/3/2020 11:00 to 10:10 25.54 25.70 25.45 25.28 25.45 25.57
7/3/2020 10:00 to 9:10 25.63 25.69 25.70 25.45 25.59 25.67
7/3/2020 09:00 to 8:10 25.94 25.96 26.04 25.84 25.90 25.85
7/3/2020 08:00 to 7:10 25.94 25.76 25.76 25.81 25.76 25.70
7/3/2020 07:00 to 6:10 25.87 25.72 25.87 25.71 25.01 25.10
7/3/2020 06:00 to 5:10 25.03 25.04 25.10 25.09 25.08 25.04
7/3/2020 05:00 to 4:10 25.46 25.91 25.81 25.82 25.88 25.91
7/3/2020 04:00 to 3:10 25.93 25.97 25.97 26.04 25.96 25.84
7/3/2020 03:00 to 2:10 25.89 25.96 25.95 25.84 25.77 25.84
7/3/2020 02:00 to 1:10 25.89 25.75 25.76 25.87 25.84 25.79
7/3/2020 01:00 to 0:10 25.94 25.78 25.89 25.80 25.52 25.66
7/3/2020 00:00 to 23:10 25.78 25.86 25.88 26.16 26.07 26.13
7/2/2020 23:00 to 22:10 26.04 25.92 25.98 25.87 25.91 25.92
7/2/2020 22:00 to 21:10 25.89 25.75 25.94 25.94 26.12 25.83
7/2/2020 21:00 to 20:10 25.84 25.70 25.77 25.90 26.04 25.88
7/2/2020 20:00 to 19:10 25.88 25.81 25.87 25.81 25.88 25.95
7/2/2020 19:00 to 18:10 25.90 25.96 25.44 25.04 24.73 25.89
7/2/2020 18:00 to 17:10 25.86 25.77 25.71 25.73 25.90 25.95
7/2/2020 17:00 to 16:10 25.88 25.94 26.01 25.98 26.11 26.01
7/2/2020 16:00 to 15:10 25.98 26.01 25.97 25.95 25.87 25.94
7/2/2020 15:00 to 14:10 26.03 25.95 25.91 25.89 25.91 26.09
7/2/2020 14:00 to 13:10 26.02 26.01 25.91 25.94 25.91 25.97
7/2/2020 13:00 to 12:10 25.85 25.83 25.77 25.61 25.70 25.66
7/2/2020 12:00 to 11:10 25.78 25.80 25.81 25.84 25.80 25.93
7/2/2020 11:00 to 10:10 25.86 25.81 25.69 25.71 25.57 25.69
7/2/2020 10:00 to 9:10 25.85 26.09 25.84 26.04 25.97 26.00
7/2/2020 09:00 to 8:10 26.02 26.20 26.11 26.12 26.07 26.09
7/2/2020 08:00 to 7:10 26.20 25.99 26.00 26.07 25.90 25.89
7/2/2020 07:00 to 6:10 25.97 26.10 25.99 26.12 26.07 26.18
7/2/2020 06:00 to 5:10 26.13 26.16 26.16 26.21 26.19 26.16
7/2/2020 05:00 to 4:10 26.16 26.11 26.07 26.15 26.21 26.09
7/2/2020 04:00 to 3:10 26.12 26.02 26.18 26.19 26.11 26.17
7/2/2020 03:00 to 2:10 26.14 26.18 26.16 26.05 26.15 26.12
7/2/2020 02:00 to 1:10 26.15 25.98 25.98 26.05 26.02 25.96
7/2/2020 01:00 to 0:10 26.00 26.00 25.94 25.89 26.09 26.01
7/2/2020 00:00 to 23:10 25.94 26.01 25.85 25.77 25.86 25.86
7/1/2020 23:00 to 22:10 25.92 25.84 25.86 25.87 26.09 26.17
7/1/2020 22:00 to 21:10 26.23 26.14 25.95 26.08 25.85 26.12
7/1/2020 21:00 to 20:10 26.10 26.24 26.22 26.19 26.27 26.15
7/1/2020 20:00 to 19:10 26.16 26.06 25.78 25.61 25.58 25.36
7/1/2020 19:00 to 18:10 24.92 25.55 25.39 26.08 25.99 25.72
7/1/2020 18:00 to 17:10 25.67 25.24 26.18 26.01 25.14 25.40
7/1/2020 17:00 to 16:10 25.43 26.25 26.01 26.06 26.19 26.00
7/1/2020 16:00 to 15:10 26.32 26.20 26.32 26.13 26.09 26.07
7/1/2020 15:00 to 14:10 26.01 25.99 25.95 25.99 25.91 25.89
7/1/2020 14:00 to 13:10 26.01 26.02 26.00 25.92 25.90 25.92
7/1/2020 13:00 to 12:10 25.94 25.95 25.80 25.91 25.83 25.94
7/1/2020 12:00 to 11:10 25.92 25.68 25.78 25.47 25.67 25.11
7/1/2020 11:00 to 10:10 24.99 25.88 25.83 25.64 25.18 25.81
7/1/2020 10:00 to 9:10 25.68 25.59 25.65 25.52 25.70 25.65
7/1/2020 09:00 to 8:10 26.08 26.04 26.03 26.07 25.92 25.95
7/1/2020 08:00 to 7:10 26.02 26.11 26.07 25.98 25.86 25.90
7/1/2020 07:00 to 6:10 25.78 25.83 25.82 26.08 25.99 26.02
7/1/2020 06:00 to 5:10 26.01 26.08 26.23 26.13 26.07 25.92
7/1/2020 05:00 to 4:10 25.99 25.45 25.94 25.77 25.67 25.77
7/1/2020 04:00 to 3:10 25.83 25.81 25.04 26.00 26.02 25.88
7/1/2020 03:00 to 2:10 25.76 25.56 25.47 25.64 25.47 25.37
7/1/2020 02:00 to 1:10 25.62 25.67 25.85 25.98 26.02 26.16
7/1/2020 01:00 to 0:10 26.10 25.91 26.20 26.13 26.02 26.07
7/1/2020 00:00 to 23:10 25.98 26.19 26.15 26.24 26.20 26.33
6/30/2020 23:00 to 22:10 26.18 26.21 26.28 26.48 26.29 26.23
6/30/2020 22:00 to 21:10 26.21 26.18 26.08 26.03 26.27 26.17
6/30/2020 21:00 to 20:10 26.37 26.33 26.32 26.28 26.50 26.56
6/30/2020 20:00 to 19:10 26.59 26.49 26.43 26.42 26.34 26.26
6/30/2020 19:00 to 18:10 26.04 26.09 26.24 26.20 26.10 26.17
6/30/2020 18:00 to 17:10 26.12 26.30 26.44 26.52 26.45 26.59
6/30/2020 17:00 to 16:10 26.51 26.66 26.63 26.56 26.51 26.51
6/30/2020 16:00 to 15:10 26.37 26.28 26.05 25.86 26.38 26.40
6/30/2020 15:00 to 14:10 26.32 26.14 26.14 26.14 26.39 26.43
6/30/2020 14:00 to 13:10 26.34 26.36 26.40 26.34 26.28 26.06
6/30/2020 13:00 to 12:10 26.05 26.08 25.96 26.31 26.13 26.03
6/30/2020 12:00 to 11:10 26.04 25.80 25.74 25.88 26.09 25.88
6/30/2020 11:00 to 10:10 25.78 25.99 26.10 26.16 26.17 25.95
6/30/2020 10:00 to 9:10 25.94 25.97 26.00 25.65 25.66 25.60
6/30/2020 09:00 to 8:10 25.94 25.50 25.78 26.36 26.35 26.23
6/30/2020 08:00 to 7:10 26.32 26.13 25.60 25.31 25.23 25.81
6/30/2020 07:00 to 6:10 26.35 26.48 26.44 26.46 26.45 26.52
6/30/2020 06:00 to 5:10 26.47 26.53 26.47 26.52 26.40 26.39
6/30/2020 05:00 to 4:10 26.49 26.40 26.45 26.48 26.50 26.51
6/30/2020 04:00 to 3:10 26.67 26.48 26.60 26.64 26.76 26.66
6/30/2020 03:00 to 2:10 26.62 26.56 26.62 26.54 26.34 26.36
6/30/2020 02:00 to 1:10 26.22 26.32 26.28 26.19 26.16 26.30
6/30/2020 01:00 to 0:10 26.41 26.51 26.42 26.42 26.48 26.44
6/30/2020 00:00 to 23:10 26.04 25.74 25.88 25.64 25.58 25.80
6/29/2020 23:00 to 22:10 26.26 26.11 25.96 26.09 26.45 26.46
6/29/2020 22:00 to 21:10 26.45 26.44 26.30 26.31 26.07 26.17
6/29/2020 21:00 to 20:10 25.85 25.72 25.41 25.42 25.45 25.61
6/29/2020 20:00 to 19:10 25.89 25.47 25.28 25.10 25.05 24.69
6/29/2020 19:00 to 18:10 24.57 24.63 24.68 24.85 25.03 24.75
6/29/2020 18:00 to 17:10 24.56 24.57 24.90 24.61 24.96 25.26
6/29/2020 17:00 to 16:10 25.98 25.96 25.68 25.29 25.49 25.37
6/29/2020 16:00 to 15:10 25.58 25.75 25.34 25.61 25.65 25.86
6/29/2020 15:00 to 14:10 26.11 26.04 25.89 25.93 25.76 25.93
6/29/2020 14:00 to 13:10 25.52 25.24 25.38 25.44 25.64 25.83
6/29/2020 13:00 to 12:10 25.86 25.93 25.80 25.89 25.63 25.38
6/29/2020 12:00 to 11:10 25.25 25.16 25.22 24.78 24.99 24.82
6/29/2020 11:00 to 10:10 24.84 24.52 24.80 25.56 25.22 25.40
6/29/2020 10:00 to 9:10 25.13 25.46 25.22 25.38 25.48 25.62
6/29/2020 09:00 to 8:10 25.97 25.90 25.73 25.68 25.49 25.23
6/29/2020 08:00 to 7:10 25.33 25.56 25.69 25.75 25.58 25.28
6/29/2020 07:00 to 6:10 24.96 24.86 24.97 24.98 25.00 24.99
6/29/2020 06:00 to 5:10 25.37 25.41 25.06 25.10 26.12 26.33
6/29/2020 05:00 to 4:10 26.51 26.46 26.54 26.26 26.63 26.57
6/29/2020 04:00 to 3:10 26.48 26.28 26.07 26.39 26.36 26.49
6/29/2020 03:00 to 2:10 26.48 26.51 26.56 26.38 26.54 26.47
6/29/2020 02:00 to 1:10 26.41 26.31 26.26 26.29 26.17 26.16
6/29/2020 01:00 to 0:10 26.19 26.23 26.15 26.06 25.89 26.01